sensor_id;sensor_type;location;lat;lon;timestamp;P1;durP1;ratioP1;P2;durP2;ratioP2
61635;SDS011;59438;45.014;39.006;2023-05-27T00:01:57;8.98;;;5.13;;
61635;SDS011;59438;45.014;39.006;2023-05-27T00:04:23;15.15;;;5.68;;
61635;SDS011;59438;45.014;39.006;2023-05-27T00:06:49;11.85;;;5.30;;
61635;SDS011;59438;45.014;39.006;2023-05-27T00:09:16;11.57;;;5.35;;
61635;SDS011;59438;45.014;39.006;2023-05-27T00:11:42;11.95;;;5.53;;
61635;SDS011;59438;45.014;39.006;2023-05-27T00:14:10;11.48;;;5.38;;
61635;SDS011;59438;45.014;39.006;2023-05-27T00:16:36;14.43;;;5.45;;
61635;SDS011;59438;45.014;39.006;2023-05-27T00:19:03;9.25;;;5.07;;
61635;SDS011;59438;45.014;39.006;2023-05-27T00:21:29;10.77;;;5.25;;
61635;SDS011;59438;45.014;39.006;2023-05-27T00:23:55;8.90;;;5.00;;
61635;SDS011;59438;45.014;39.006;2023-05-27T00:26:22;8.15;;;5.00;;
61635;SDS011;59438;45.014;39.006;2023-05-27T00:28:48;9.32;;;5.68;;
61635;SDS011;59438;45.014;39.006;2023-05-27T00:31:16;11.32;;;5.88;;
61635;SDS011;59438;45.014;39.006;2023-05-27T00:33:43;9.45;;;5.43;;
61635;SDS011;59438;45.014;39.006;2023-05-27T00:36:09;13.82;;;5.30;;
61635;SDS011;59438;45.014;39.006;2023-05-27T00:38:35;7.03;;;4.85;;
61635;SDS011;59438;45.014;39.006;2023-05-27T00:41:02;8.88;;;5.30;;
61635;SDS011;59438;45.014;39.006;2023-05-27T00:43:29;11.52;;;4.97;;
61635;SDS011;59438;45.014;39.006;2023-05-27T00:45:56;8.43;;;4.80;;
61635;SDS011;59438;45.014;39.006;2023-05-27T00:48:24;9.88;;;5.43;;
61635;SDS011;59438;45.014;39.006;2023-05-27T00:50:51;11.93;;;5.82;;
61635;SDS011;59438;45.014;39.006;2023-05-27T00:53:17;9.82;;;6.05;;
61635;SDS011;59438;45.014;39.006;2023-05-27T00:55:45;12.80;;;7.22;;
61635;SDS011;59438;45.014;39.006;2023-05-27T00:58:12;15.82;;;7.88;;
61635;SDS011;59438;45.014;39.006;2023-05-27T01:00:39;13.20;;;8.80;;
61635;SDS011;59438;45.014;39.006;2023-05-27T01:03:05;15.90;;;8.82;;
61635;SDS011;59438;45.014;39.006;2023-05-27T01:05:33;18.42;;;9.70;;
61635;SDS011;59438;45.014;39.006;2023-05-27T01:08:03;16.55;;;9.77;;
61635;SDS011;59438;45.014;39.006;2023-05-27T01:10:36;14.20;;;9.43;;
61635;SDS011;59438;45.014;39.006;2023-05-27T01:13:10;19.23;;;9.68;;
61635;SDS011;59438;45.014;39.006;2023-05-27T01:15:41;14.80;;;9.32;;
61635;SDS011;59438;45.014;39.006;2023-05-27T01:18:08;15.90;;;9.95;;
61635;SDS011;59438;45.014;39.006;2023-05-27T01:20:39;17.48;;;9.88;;
61635;SDS011;59438;45.014;39.006;2023-05-27T01:23:08;15.98;;;10.13;;
61635;SDS011;59438;45.014;39.006;2023-05-27T01:25:35;13.90;;;10.10;;
61635;SDS011;59438;45.014;39.006;2023-05-27T01:28:01;16.10;;;10.85;;
61635;SDS011;59438;45.014;39.006;2023-05-27T01:30:28;17.98;;;10.85;;
61635;SDS011;59438;45.014;39.006;2023-05-27T01:32:55;19.83;;;11.70;;
61635;SDS011;59438;45.014;39.006;2023-05-27T01:35:29;17.45;;;10.98;;
61635;SDS011;59438;45.014;39.006;2023-05-27T01:38:03;17.80;;;9.85;;
61635;SDS011;59438;45.014;39.006;2023-05-27T01:40:34;16.35;;;9.75;;
61635;SDS011;59438;45.014;39.006;2023-05-27T01:43:01;17.67;;;9.73;;
61635;SDS011;59438;45.014;39.006;2023-05-27T01:45:27;16.92;;;10.23;;
61635;SDS011;59438;45.014;39.006;2023-05-27T01:47:55;17.05;;;10.02;;
61635;SDS011;59438;45.014;39.006;2023-05-27T01:50:21;14.00;;;9.05;;
61635;SDS011;59438;45.014;39.006;2023-05-27T01:52:47;12.48;;;8.88;;
61635;SDS011;59438;45.014;39.006;2023-05-27T01:55:14;12.82;;;7.60;;
61635;SDS011;59438;45.014;39.006;2023-05-27T01:57:41;11.60;;;7.38;;
61635;SDS011;59438;45.014;39.006;2023-05-27T02:00:08;11.90;;;7.15;;
61635;SDS011;59438;45.014;39.006;2023-05-27T02:02:35;11.60;;;7.07;;
61635;SDS011;59438;45.014;39.006;2023-05-27T02:05:02;15.32;;;7.90;;
61635;SDS011;59438;45.014;39.006;2023-05-27T02:07:28;12.30;;;6.43;;
61635;SDS011;59438;45.014;39.006;2023-05-27T02:09:55;14.38;;;7.03;;
61635;SDS011;59438;45.014;39.006;2023-05-27T02:12:21;11.98;;;6.75;;
61635;SDS011;59438;45.014;39.006;2023-05-27T02:14:49;14.10;;;7.03;;
61635;SDS011;59438;45.014;39.006;2023-05-27T02:17:16;16.20;;;6.97;;
61635;SDS011;59438;45.014;39.006;2023-05-27T02:19:42;13.18;;;6.63;;
61635;SDS011;59438;45.014;39.006;2023-05-27T02:22:09;12.40;;;6.47;;
61635;SDS011;59438;45.014;39.006;2023-05-27T02:24:35;11.38;;;7.05;;
61635;SDS011;59438;45.014;39.006;2023-05-27T02:27:02;13.10;;;6.65;;
61635;SDS011;59438;45.014;39.006;2023-05-27T02:29:28;12.35;;;7.18;;
61635;SDS011;59438;45.014;39.006;2023-05-27T02:31:56;10.80;;;6.80;;
61635;SDS011;59438;45.014;39.006;2023-05-27T02:34:22;14.13;;;6.97;;
61635;SDS011;59438;45.014;39.006;2023-05-27T02:36:49;14.18;;;6.50;;
61635;SDS011;59438;45.014;39.006;2023-05-27T02:39:15;10.50;;;6.32;;
61635;SDS011;59438;45.014;39.006;2023-05-27T02:41:41;10.52;;;6.88;;
61635;SDS011;59438;45.014;39.006;2023-05-27T02:44:08;13.00;;;6.28;;
61635;SDS011;59438;45.014;39.006;2023-05-27T02:46:34;14.77;;;6.82;;
61635;SDS011;59438;45.014;39.006;2023-05-27T02:49:02;16.58;;;7.45;;
61635;SDS011;59438;45.014;39.006;2023-05-27T02:51:28;13.10;;;6.80;;
61635;SDS011;59438;45.014;39.006;2023-05-27T02:53:56;14.73;;;6.93;;
61635;SDS011;59438;45.014;39.006;2023-05-27T02:56:22;12.95;;;6.85;;
61635;SDS011;59438;45.014;39.006;2023-05-27T02:58:48;11.02;;;6.30;;
61635;SDS011;59438;45.014;39.006;2023-05-27T03:01:15;11.93;;;6.35;;
61635;SDS011;59438;45.014;39.006;2023-05-27T03:03:41;13.38;;;6.80;;
61635;SDS011;59438;45.014;39.006;2023-05-27T03:06:09;15.63;;;6.18;;
61635;SDS011;59438;45.014;39.006;2023-05-27T03:08:35;11.57;;;6.95;;
61635;SDS011;59438;45.014;39.006;2023-05-27T03:11:02;13.05;;;6.95;;
61635;SDS011;59438;45.014;39.006;2023-05-27T03:13:28;13.77;;;6.63;;
61635;SDS011;59438;45.014;39.006;2023-05-27T03:15:54;11.60;;;6.75;;
61635;SDS011;59438;45.014;39.006;2023-05-27T03:18:21;14.75;;;6.85;;
61635;SDS011;59438;45.014;39.006;2023-05-27T03:20:47;12.20;;;7.00;;
61635;SDS011;59438;45.014;39.006;2023-05-27T03:23:15;13.32;;;6.72;;
61635;SDS011;59438;45.014;39.006;2023-05-27T03:25:42;12.95;;;6.95;;
61635;SDS011;59438;45.014;39.006;2023-05-27T03:28:08;15.98;;;7.35;;
61635;SDS011;59438;45.014;39.006;2023-05-27T03:30:34;14.65;;;6.65;;
61635;SDS011;59438;45.014;39.006;2023-05-27T03:33:01;12.98;;;7.38;;
61635;SDS011;59438;45.014;39.006;2023-05-27T03:35:27;16.25;;;7.28;;
61635;SDS011;59438;45.014;39.006;2023-05-27T03:37:53;14.82;;;8.10;;
61635;SDS011;59438;45.014;39.006;2023-05-27T03:40:21;12.98;;;7.72;;
61635;SDS011;59438;45.014;39.006;2023-05-27T03:42:48;17.13;;;9.30;;
61635;SDS011;59438;45.014;39.006;2023-05-27T03:45:14;16.13;;;8.75;;
61635;SDS011;59438;45.014;39.006;2023-05-27T03:47:41;16.55;;;9.23;;
61635;SDS011;59438;45.014;39.006;2023-05-27T03:50:07;14.63;;;8.48;;
61635;SDS011;59438;45.014;39.006;2023-05-27T03:52:34;15.23;;;9.05;;
61635;SDS011;59438;45.014;39.006;2023-05-27T03:55:00;16.10;;;9.38;;
61635;SDS011;59438;45.014;39.006;2023-05-27T03:57:28;17.80;;;9.45;;
61635;SDS011;59438;45.014;39.006;2023-05-27T03:59:54;15.57;;;8.77;;
61635;SDS011;59438;45.014;39.006;2023-05-27T04:02:21;16.73;;;9.18;;
61635;SDS011;59438;45.014;39.006;2023-05-27T04:04:47;14.60;;;8.65;;
61635;SDS011;59438;45.014;39.006;2023-05-27T04:07:13;15.05;;;8.27;;
61635;SDS011;59438;45.014;39.006;2023-05-27T04:09:40;17.10;;;9.52;;
61635;SDS011;59438;45.014;39.006;2023-05-27T04:12:07;15.98;;;8.98;;
61635;SDS011;59438;45.014;39.006;2023-05-27T04:14:35;20.13;;;9.95;;
61635;SDS011;59438;45.014;39.006;2023-05-27T04:17:02;19.30;;;10.35;;
61635;SDS011;59438;45.014;39.006;2023-05-27T04:19:28;15.45;;;9.05;;
61635;SDS011;59438;45.014;39.006;2023-05-27T04:21:54;16.23;;;9.55;;
61635;SDS011;59438;45.014;39.006;2023-05-27T04:24:21;16.45;;;9.75;;
61635;SDS011;59438;45.014;39.006;2023-05-27T04:26:47;16.00;;;9.20;;
61635;SDS011;59438;45.014;39.006;2023-05-27T04:29:13;14.73;;;9.27;;
61635;SDS011;59438;45.014;39.006;2023-05-27T04:31:41;15.93;;;7.93;;
61635;SDS011;59438;45.014;39.006;2023-05-27T04:34:08;14.00;;;8.23;;
61635;SDS011;59438;45.014;39.006;2023-05-27T04:36:34;11.73;;;7.40;;
61635;SDS011;59438;45.014;39.006;2023-05-27T04:39:01;12.13;;;6.97;;
61635;SDS011;59438;45.014;39.006;2023-05-27T04:41:27;9.93;;;6.57;;
61635;SDS011;59438;45.014;39.006;2023-05-27T04:43:53;12.43;;;7.75;;
61635;SDS011;59438;45.014;39.006;2023-05-27T04:46:20;14.60;;;7.63;;
61635;SDS011;59438;45.014;39.006;2023-05-27T04:48:48;11.18;;;7.35;;
61635;SDS011;59438;45.014;39.006;2023-05-27T04:51:14;18.80;;;9.05;;
61635;SDS011;59438;45.014;39.006;2023-05-27T04:53:40;18.17;;;7.95;;
61635;SDS011;59438;45.014;39.006;2023-05-27T04:56:07;12.25;;;7.72;;
61635;SDS011;59438;45.014;39.006;2023-05-27T04:58:33;15.57;;;8.20;;
61635;SDS011;59438;45.014;39.006;2023-05-27T05:01:00;15.63;;;7.70;;
61635;SDS011;59438;45.014;39.006;2023-05-27T05:03:26;11.00;;;7.22;;
61635;SDS011;59438;45.014;39.006;2023-05-27T05:05:54;11.77;;;6.90;;
61635;SDS011;59438;45.014;39.006;2023-05-27T05:08:20;12.60;;;7.20;;
61635;SDS011;59438;45.014;39.006;2023-05-27T05:10:47;14.27;;;7.75;;
61635;SDS011;59438;45.014;39.006;2023-05-27T05:13:14;10.13;;;6.82;;
61635;SDS011;59438;45.014;39.006;2023-05-27T05:15:40;13.38;;;7.25;;
61635;SDS011;59438;45.014;39.006;2023-05-27T05:18:06;13.38;;;7.47;;
61635;SDS011;59438;45.014;39.006;2023-05-27T05:20:33;10.98;;;6.80;;
61635;SDS011;59438;45.014;39.006;2023-05-27T05:23:00;13.15;;;6.88;;
61635;SDS011;59438;45.014;39.006;2023-05-27T05:25:27;13.20;;;5.82;;
61635;SDS011;59438;45.014;39.006;2023-05-27T05:27:53;10.63;;;6.32;;
61635;SDS011;59438;45.014;39.006;2023-05-27T05:30:19;9.65;;;6.57;;
61635;SDS011;59438;45.014;39.006;2023-05-27T05:32:46;12.57;;;5.95;;
61635;SDS011;59438;45.014;39.006;2023-05-27T05:35:13;12.93;;;5.85;;
61635;SDS011;59438;45.014;39.006;2023-05-27T05:37:39;10.98;;;5.97;;
61635;SDS011;59438;45.014;39.006;2023-05-27T05:40:08;11.20;;;5.60;;
61635;SDS011;59438;45.014;39.006;2023-05-27T05:42:35;13.88;;;6.15;;
61635;SDS011;59438;45.014;39.006;2023-05-27T05:45:01;9.90;;;5.03;;
61635;SDS011;59438;45.014;39.006;2023-05-27T05:47:29;9.88;;;4.57;;
61635;SDS011;59438;45.014;39.006;2023-05-27T05:49:55;10.98;;;4.93;;
61635;SDS011;59438;45.014;39.006;2023-05-27T05:52:21;10.30;;;5.60;;
61635;SDS011;59438;45.014;39.006;2023-05-27T05:54:48;7.85;;;4.97;;
61635;SDS011;59438;45.014;39.006;2023-05-27T05:57:16;9.50;;;4.65;;
61635;SDS011;59438;45.014;39.006;2023-05-27T05:59:42;10.75;;;4.57;;
61635;SDS011;59438;45.014;39.006;2023-05-27T06:02:09;8.63;;;4.70;;
61635;SDS011;59438;45.014;39.006;2023-05-27T06:04:35;11.48;;;5.25;;
61635;SDS011;59438;45.014;39.006;2023-05-27T06:07:01;10.23;;;4.75;;
61635;SDS011;59438;45.014;39.006;2023-05-27T06:09:28;7.72;;;4.40;;
61635;SDS011;59438;45.014;39.006;2023-05-27T06:11:54;11.63;;;5.25;;
61635;SDS011;59438;45.014;39.006;2023-05-27T06:14:22;9.38;;;4.82;;
61635;SDS011;59438;45.014;39.006;2023-05-27T06:16:48;10.02;;;5.05;;
61635;SDS011;59438;45.014;39.006;2023-05-27T06:19:15;9.55;;;4.78;;
61635;SDS011;59438;45.014;39.006;2023-05-27T06:21:41;7.15;;;3.67;;
61635;SDS011;59438;45.014;39.006;2023-05-27T06:24:07;7.72;;;4.03;;
61635;SDS011;59438;45.014;39.006;2023-05-27T06:26:34;7.93;;;4.00;;
61635;SDS011;59438;45.014;39.006;2023-05-27T06:29:00;7.03;;;4.40;;
61635;SDS011;59438;45.014;39.006;2023-05-27T06:31:28;10.98;;;4.20;;
61635;SDS011;59438;45.014;39.006;2023-05-27T06:33:54;12.63;;;3.90;;
61635;SDS011;59438;45.014;39.006;2023-05-27T06:36:20;11.27;;;4.68;;
61635;SDS011;59438;45.014;39.006;2023-05-27T06:38:47;11.15;;;4.22;;
61635;SDS011;59438;45.014;39.006;2023-05-27T06:41:14;9.95;;;4.57;;
61635;SDS011;59438;45.014;39.006;2023-05-27T06:43:41;6.00;;;4.25;;
61635;SDS011;59438;45.014;39.006;2023-05-27T06:46:07;9.48;;;4.63;;
61635;SDS011;59438;45.014;39.006;2023-05-27T06:48:35;10.35;;;4.40;;
61635;SDS011;59438;45.014;39.006;2023-05-27T06:51:01;12.80;;;4.35;;
61635;SDS011;59438;45.014;39.006;2023-05-27T06:53:28;8.55;;;4.40;;
61635;SDS011;59438;45.014;39.006;2023-05-27T06:55:55;10.52;;;4.57;;
61635;SDS011;59438;45.014;39.006;2023-05-27T06:58:21;9.50;;;4.50;;
61635;SDS011;59438;45.014;39.006;2023-05-27T07:00:47;10.13;;;4.88;;
61635;SDS011;59438;45.014;39.006;2023-05-27T07:03:15;14.65;;;5.22;;
61635;SDS011;59438;45.014;39.006;2023-05-27T07:05:42;11.00;;;4.93;;
61635;SDS011;59438;45.014;39.006;2023-05-27T07:08:09;10.55;;;4.80;;
61635;SDS011;59438;45.014;39.006;2023-05-27T07:10:35;15.02;;;5.80;;
61635;SDS011;59438;45.014;39.006;2023-05-27T07:13:02;12.73;;;5.97;;
61635;SDS011;59438;45.014;39.006;2023-05-27T07:15:28;12.18;;;6.40;;
61635;SDS011;59438;45.014;39.006;2023-05-27T07:17:54;13.77;;;5.95;;
61635;SDS011;59438;45.014;39.006;2023-05-27T07:20:21;11.98;;;5.90;;
61635;SDS011;59438;45.014;39.006;2023-05-27T07:22:48;16.55;;;6.63;;
61635;SDS011;59438;45.014;39.006;2023-05-27T07:25:15;11.38;;;6.53;;
61635;SDS011;59438;45.014;39.006;2023-05-27T07:27:41;15.15;;;7.15;;
61635;SDS011;59438;45.014;39.006;2023-05-27T07:30:08;16.10;;;6.93;;
61635;SDS011;59438;45.014;39.006;2023-05-27T07:32:35;14.68;;;6.95;;
61635;SDS011;59438;45.014;39.006;2023-05-27T07:35:01;13.80;;;7.38;;
61635;SDS011;59438;45.014;39.006;2023-05-27T07:37:28;12.10;;;7.38;;
61635;SDS011;59438;45.014;39.006;2023-05-27T07:39:56;16.55;;;6.85;;
61635;SDS011;59438;45.014;39.006;2023-05-27T07:42:22;11.75;;;6.63;;
61635;SDS011;59438;45.014;39.006;2023-05-27T07:44:49;12.20;;;5.95;;
61635;SDS011;59438;45.014;39.006;2023-05-27T07:47:15;18.02;;;6.13;;
61635;SDS011;59438;45.014;39.006;2023-05-27T07:49:42;9.45;;;5.80;;
61635;SDS011;59438;45.014;39.006;2023-05-27T07:52:08;14.43;;;6.72;;
61635;SDS011;59438;45.014;39.006;2023-05-27T07:54:34;12.50;;;6.18;;
61635;SDS011;59438;45.014;39.006;2023-05-27T07:57:02;13.60;;;6.10;;
61635;SDS011;59438;45.014;39.006;2023-05-27T07:59:29;9.55;;;5.60;;
61635;SDS011;59438;45.014;39.006;2023-05-27T08:01:55;11.27;;;5.60;;
61635;SDS011;59438;45.014;39.006;2023-05-27T08:04:22;11.40;;;5.80;;
61635;SDS011;59438;45.014;39.006;2023-05-27T08:06:48;9.80;;;5.80;;
61635;SDS011;59438;45.014;39.006;2023-05-27T08:09:14;12.25;;;5.70;;
61635;SDS011;59438;45.014;39.006;2023-05-27T08:11:41;10.90;;;5.20;;
61635;SDS011;59438;45.014;39.006;2023-05-27T08:14:09;14.60;;;6.00;;
61635;SDS011;59438;45.014;39.006;2023-05-27T08:16:35;11.68;;;5.60;;
61635;SDS011;59438;45.014;39.006;2023-05-27T08:19:01;12.90;;;5.45;;
61635;SDS011;59438;45.014;39.006;2023-05-27T08:21:28;12.00;;;6.00;;
61635;SDS011;59438;45.014;39.006;2023-05-27T08:23:54;16.17;;;6.78;;
61635;SDS011;59438;45.014;39.006;2023-05-27T08:26:20;13.55;;;5.90;;
61635;SDS011;59438;45.014;39.006;2023-05-27T08:28:47;17.67;;;5.95;;
61635;SDS011;59438;45.014;39.006;2023-05-27T08:31:14;11.38;;;6.18;;
61635;SDS011;59438;45.014;39.006;2023-05-27T08:33:41;9.23;;;6.07;;
61635;SDS011;59438;45.014;39.006;2023-05-27T08:36:07;13.35;;;6.88;;
61635;SDS011;59438;45.014;39.006;2023-05-27T08:38:33;11.20;;;6.93;;
61635;SDS011;59438;45.014;39.006;2023-05-27T08:41:00;15.02;;;6.07;;
61635;SDS011;59438;45.014;39.006;2023-05-27T08:43:26;9.82;;;6.35;;
61635;SDS011;59438;45.014;39.006;2023-05-27T08:45:53;15.55;;;7.10;;
61635;SDS011;59438;45.014;39.006;2023-05-27T08:48:21;13.07;;;6.82;;
61635;SDS011;59438;45.014;39.006;2023-05-27T08:50:47;13.75;;;6.85;;
61635;SDS011;59438;45.014;39.006;2023-05-27T08:53:14;10.38;;;6.32;;
61635;SDS011;59438;45.014;39.006;2023-05-27T08:55:43;12.10;;;6.50;;
61635;SDS011;59438;45.014;39.006;2023-05-27T08:58:10;9.77;;;5.95;;
61635;SDS011;59438;45.014;39.006;2023-05-27T09:00:37;9.40;;;6.05;;
61635;SDS011;59438;45.014;39.006;2023-05-27T09:03:04;12.50;;;6.32;;
61635;SDS011;59438;45.014;39.006;2023-05-27T09:05:32;11.60;;;6.43;;
61635;SDS011;59438;45.014;39.006;2023-05-27T09:07:59;9.25;;;5.43;;
61635;SDS011;59438;45.014;39.006;2023-05-27T09:10:34;16.88;;;6.32;;
61635;SDS011;59438;45.014;39.006;2023-05-27T09:13:01;11.38;;;6.57;;
61635;SDS011;59438;45.014;39.006;2023-05-27T09:15:27;10.88;;;6.40;;
61635;SDS011;59438;45.014;39.006;2023-05-27T09:17:56;10.77;;;5.88;;
61635;SDS011;59438;45.014;39.006;2023-05-27T09:20:24;9.18;;;5.38;;
61635;SDS011;59438;45.014;39.006;2023-05-27T09:22:55;11.43;;;5.40;;
61635;SDS011;59438;45.014;39.006;2023-05-27T09:25:23;14.00;;;5.88;;
61635;SDS011;59438;45.014;39.006;2023-05-27T09:27:49;12.73;;;5.82;;
61635;SDS011;59438;45.014;39.006;2023-05-27T09:30:18;9.52;;;5.15;;
61635;SDS011;59438;45.014;39.006;2023-05-27T09:32:45;10.40;;;5.30;;
61635;SDS011;59438;45.014;39.006;2023-05-27T09:35:12;8.23;;;6.00;;
61635;SDS011;59438;45.014;39.006;2023-05-27T09:37:40;9.00;;;6.13;;
61635;SDS011;59438;45.014;39.006;2023-05-27T09:40:09;10.55;;;5.68;;
61635;SDS011;59438;45.014;39.006;2023-05-27T09:42:40;8.10;;;5.47;;
61635;SDS011;59438;45.014;39.006;2023-05-27T09:45:10;13.45;;;6.10;;
61635;SDS011;59438;45.014;39.006;2023-05-27T09:47:38;13.60;;;6.20;;
61635;SDS011;59438;45.014;39.006;2023-05-27T09:50:06;10.88;;;6.15;;
61635;SDS011;59438;45.014;39.006;2023-05-27T09:52:34;11.35;;;5.72;;
61635;SDS011;59438;45.014;39.006;2023-05-27T09:55:01;8.32;;;4.75;;
61635;SDS011;59438;45.014;39.006;2023-05-27T09:57:29;11.65;;;5.07;;
61635;SDS011;59438;45.014;39.006;2023-05-27T09:59:57;10.05;;;4.95;;
61635;SDS011;59438;45.014;39.006;2023-05-27T10:02:25;8.60;;;4.78;;
61635;SDS011;59438;45.014;39.006;2023-05-27T10:04:53;7.30;;;5.15;;
61635;SDS011;59438;45.014;39.006;2023-05-27T10:07:22;8.90;;;4.60;;
61635;SDS011;59438;45.014;39.006;2023-05-27T10:09:49;10.45;;;5.38;;
61635;SDS011;59438;45.014;39.006;2023-05-27T10:12:15;13.90;;;5.50;;
61635;SDS011;59438;45.014;39.006;2023-05-27T10:14:44;9.85;;;4.85;;
61635;SDS011;59438;45.014;39.006;2023-05-27T10:17:10;8.25;;;4.88;;
61635;SDS011;59438;45.014;39.006;2023-05-27T10:19:37;8.73;;;4.90;;
61635;SDS011;59438;45.014;39.006;2023-05-27T10:22:14;10.75;;;5.07;;
61635;SDS011;59438;45.014;39.006;2023-05-27T10:24:40;12.80;;;6.05;;
61635;SDS011;59438;45.014;39.006;2023-05-27T10:27:07;10.05;;;5.70;;
61635;SDS011;59438;45.014;39.006;2023-05-27T10:29:36;13.77;;;6.20;;
61635;SDS011;59438;45.014;39.006;2023-05-27T10:32:04;9.75;;;6.13;;
61635;SDS011;59438;45.014;39.006;2023-05-27T10:34:33;11.35;;;7.10;;
61635;SDS011;59438;45.014;39.006;2023-05-27T10:37:00;15.25;;;6.90;;
61635;SDS011;59438;45.014;39.006;2023-05-27T10:39:26;11.88;;;6.35;;
61635;SDS011;59438;45.014;39.006;2023-05-27T10:41:54;12.75;;;6.85;;
61635;SDS011;59438;45.014;39.006;2023-05-27T10:44:27;13.00;;;6.57;;
61635;SDS011;59438;45.014;39.006;2023-05-27T10:47:08;14.15;;;6.68;;
61635;SDS011;59438;45.014;39.006;2023-05-27T10:49:37;12.35;;;6.90;;
61635;SDS011;59438;45.014;39.006;2023-05-27T10:52:05;16.77;;;6.28;;
61635;SDS011;59438;45.014;39.006;2023-05-27T10:54:33;13.45;;;6.97;;
61635;SDS011;59438;45.014;39.006;2023-05-27T10:57:00;13.40;;;5.72;;
61635;SDS011;59438;45.014;39.006;2023-05-27T10:59:30;9.88;;;4.53;;
61635;SDS011;59438;45.014;39.006;2023-05-27T11:02:06;13.88;;;5.15;;
61635;SDS011;59438;45.014;39.006;2023-05-27T11:04:34;6.75;;;4.70;;
61635;SDS011;59438;45.014;39.006;2023-05-27T11:07:00;11.65;;;5.60;;
61635;SDS011;59438;45.014;39.006;2023-05-27T11:09:27;11.38;;;5.70;;
61635;SDS011;59438;45.014;39.006;2023-05-27T11:11:54;13.18;;;6.03;;
61635;SDS011;59438;45.014;39.006;2023-05-27T11:14:21;7.60;;;4.80;;
61635;SDS011;59438;45.014;39.006;2023-05-27T11:16:48;11.57;;;5.93;;
61635;SDS011;59438;45.014;39.006;2023-05-27T11:19:16;10.20;;;5.60;;
61635;SDS011;59438;45.014;39.006;2023-05-27T11:21:44;10.30;;;5.15;;
61635;SDS011;59438;45.014;39.006;2023-05-27T11:24:13;13.15;;;7.07;;
61635;SDS011;59438;45.014;39.006;2023-05-27T11:26:41;11.38;;;5.72;;
61635;SDS011;59438;45.014;39.006;2023-05-27T11:29:08;10.35;;;6.40;;
61635;SDS011;59438;45.014;39.006;2023-05-27T11:31:35;9.30;;;6.10;;
61635;SDS011;59438;45.014;39.006;2023-05-27T11:34:01;8.82;;;5.15;;
61635;SDS011;59438;45.014;39.006;2023-05-27T11:36:30;11.50;;;4.95;;
61635;SDS011;59438;45.014;39.006;2023-05-27T11:38:56;11.10;;;5.28;;
61635;SDS011;59438;45.014;39.006;2023-05-27T11:41:24;10.75;;;4.45;;
61635;SDS011;59438;45.014;39.006;2023-05-27T11:43:54;7.97;;;5.00;;
61635;SDS011;59438;45.014;39.006;2023-05-27T11:46:21;6.60;;;4.37;;
61635;SDS011;59438;45.014;39.006;2023-05-27T11:48:48;10.93;;;4.90;;
61635;SDS011;59438;45.014;39.006;2023-05-27T11:51:15;10.18;;;5.07;;
61635;SDS011;59438;45.014;39.006;2023-05-27T11:53:45;14.50;;;4.93;;
61635;SDS011;59438;45.014;39.006;2023-05-27T11:56:12;10.40;;;4.53;;
61635;SDS011;59438;45.014;39.006;2023-05-27T11:58:38;10.40;;;4.80;;
61635;SDS011;59438;45.014;39.006;2023-05-27T12:01:04;11.57;;;4.63;;
61635;SDS011;59438;45.014;39.006;2023-05-27T12:03:32;11.43;;;5.20;;
61635;SDS011;59438;45.014;39.006;2023-05-27T12:05:59;14.95;;;4.32;;
61635;SDS011;59438;45.014;39.006;2023-05-27T12:08:26;18.42;;;5.15;;
61635;SDS011;59438;45.014;39.006;2023-05-27T12:10:54;8.30;;;4.60;;
61635;SDS011;59438;45.014;39.006;2023-05-27T12:13:21;9.43;;;4.70;;
61635;SDS011;59438;45.014;39.006;2023-05-27T12:15:47;7.18;;;4.70;;
61635;SDS011;59438;45.014;39.006;2023-05-27T12:18:14;10.85;;;4.50;;
61635;SDS011;59438;45.014;39.006;2023-05-27T12:20:40;9.15;;;4.30;;
61635;SDS011;59438;45.014;39.006;2023-05-27T12:23:07;12.65;;;4.82;;
61635;SDS011;59438;45.014;39.006;2023-05-27T12:25:33;9.60;;;4.60;;
61635;SDS011;59438;45.014;39.006;2023-05-27T12:28:01;9.57;;;4.38;;
61635;SDS011;59438;45.014;39.006;2023-05-27T12:30:28;7.82;;;4.40;;
61635;SDS011;59438;45.014;39.006;2023-05-27T12:32:54;8.95;;;4.53;;
61635;SDS011;59438;45.014;39.006;2023-05-27T12:35:21;7.80;;;3.97;;
61635;SDS011;59438;45.014;39.006;2023-05-27T12:37:47;10.25;;;4.18;;
61635;SDS011;59438;45.014;39.006;2023-05-27T12:40:13;10.45;;;4.40;;
61635;SDS011;59438;45.014;39.006;2023-05-27T12:42:40;8.35;;;4.13;;
61635;SDS011;59438;45.014;39.006;2023-05-27T12:45:08;14.63;;;4.55;;
61635;SDS011;59438;45.014;39.006;2023-05-27T12:47:35;9.32;;;4.57;;
61635;SDS011;59438;45.014;39.006;2023-05-27T12:50:02;9.27;;;4.15;;
61635;SDS011;59438;45.014;39.006;2023-05-27T12:52:28;11.13;;;4.25;;
61635;SDS011;59438;45.014;39.006;2023-05-27T12:54:55;6.07;;;3.95;;
61635;SDS011;59438;45.014;39.006;2023-05-27T12:57:22;10.98;;;4.43;;
61635;SDS011;59438;45.014;39.006;2023-05-27T12:59:48;9.55;;;3.92;;
61635;SDS011;59438;45.014;39.006;2023-05-27T13:02:16;9.15;;;3.95;;
61635;SDS011;59438;45.014;39.006;2023-05-27T13:04:43;9.20;;;4.20;;
61635;SDS011;59438;45.014;39.006;2023-05-27T13:07:10;7.82;;;4.32;;
61635;SDS011;59438;45.014;39.006;2023-05-27T13:09:36;10.40;;;4.30;;
61635;SDS011;59438;45.014;39.006;2023-05-27T13:12:04;8.43;;;3.85;;
61635;SDS011;59438;45.014;39.006;2023-05-27T13:14:31;10.05;;;4.50;;
61635;SDS011;59438;45.014;39.006;2023-05-27T13:16:57;9.60;;;4.28;;
61635;SDS011;59438;45.014;39.006;2023-05-27T13:19:25;8.63;;;4.15;;
61635;SDS011;59438;45.014;39.006;2023-05-27T13:21:52;7.03;;;4.20;;
61635;SDS011;59438;45.014;39.006;2023-05-27T13:24:18;9.82;;;4.13;;
61635;SDS011;59438;45.014;39.006;2023-05-27T13:26:45;9.07;;;4.10;;
61635;SDS011;59438;45.014;39.006;2023-05-27T13:29:11;13.75;;;4.45;;
61635;SDS011;59438;45.014;39.006;2023-05-27T13:31:38;12.98;;;4.93;;
61635;SDS011;59438;45.014;39.006;2023-05-27T13:34:04;8.27;;;3.80;;
61635;SDS011;59438;45.014;39.006;2023-05-27T13:36:32;11.07;;;4.32;;
61635;SDS011;59438;45.014;39.006;2023-05-27T13:38:58;8.73;;;4.50;;
61635;SDS011;59438;45.014;39.006;2023-05-27T13:41:24;11.43;;;4.97;;
61635;SDS011;59438;45.014;39.006;2023-05-27T13:43:51;11.80;;;4.88;;
61635;SDS011;59438;45.014;39.006;2023-05-27T13:46:17;8.35;;;4.18;;
61635;SDS011;59438;45.014;39.006;2023-05-27T13:48:43;10.77;;;4.53;;
61635;SDS011;59438;45.014;39.006;2023-05-27T13:51:10;6.28;;;4.03;;
61635;SDS011;59438;45.014;39.006;2023-05-27T13:53:38;7.32;;;4.30;;
61635;SDS011;59438;45.014;39.006;2023-05-27T13:56:04;8.40;;;3.95;;
61635;SDS011;59438;45.014;39.006;2023-05-27T13:58:31;6.95;;;3.92;;
61635;SDS011;59438;45.014;39.006;2023-05-27T14:00:57;9.10;;;3.88;;
61635;SDS011;59438;45.014;39.006;2023-05-27T14:03:23;9.60;;;4.03;;
61635;SDS011;59438;45.014;39.006;2023-05-27T14:05:50;8.23;;;3.60;;
61635;SDS011;59438;45.014;39.006;2023-05-27T14:08:16;9.07;;;4.47;;
61635;SDS011;59438;45.014;39.006;2023-05-27T14:10:44;9.88;;;4.28;;
61635;SDS011;59438;45.014;39.006;2023-05-27T14:13:10;8.25;;;4.22;;
61635;SDS011;59438;45.014;39.006;2023-05-27T14:15:36;8.55;;;4.25;;
61635;SDS011;59438;45.014;39.006;2023-05-27T14:18:03;8.52;;;4.45;;
61635;SDS011;59438;45.014;39.006;2023-05-27T14:20:32;8.18;;;4.50;;
61635;SDS011;59438;45.014;39.006;2023-05-27T14:22:59;10.55;;;4.60;;
61635;SDS011;59438;45.014;39.006;2023-05-27T14:25:25;10.27;;;4.35;;